Latest Weather Observations for Cerberus

IDV60901

Issued at 11:41 am EDT Monday 18 October 2021 (issued every 10 minutes, with the page automatically refreshed every 10 minutes)

About weather observations | Map of Melbourne area stations | Latest observations for Melbourne area | Other Formats
Station Details ID: 086361 Name: CERBERUS Lat: -38.36 Lon: 145.18 Height: 12.69 m
Data from the previous 72 hours. | See also: Recent months at Cerberus
Date/Time
EDT
Temp
°C
App
Temp
°C
Dew
Point
°C
Rel
Hum
%
Delta-T
°C
Wind Press
QNH
hPa
Press
MSL
hPa
Rain since
9am
mm
Dir  Spd
km/h
Gust
km/h
Spd
kts
Gust
kts
18/11:30am 15.9 14.2 9.8 67 3.2 SW 9 15 5 8 1013.1 1013.1 0.0
18/11:00am 16.6 14.4 9.3 62 3.8 WNW 11 17 6 9 1012.9 1012.9 0.0
18/10:30am 15.9 13.1 8.6 62 3.7 WNW 13 19 7 10 1013.0 1013.0 0.0
18/10:00am 15.1 13.2 9.0 67 3.1 WNW 9 15 5 8 1013.0 1013.0 0.0
18/09:30am 15.0 12.2 8.5 65 3.3 WNW 13 19 7 10 1012.9 1012.9 0.0
18/09:00am 14.4 12.6 9.6 73 2.5 WNW 9 17 5 9 1012.9 1012.9 0.2
18/08:30am 13.9 12.4 9.3 74 2.3 WNW 7 11 4 6 1012.6 1012.6 0.2
18/08:00am 13.6 11.5 8.4 71 2.6 NW 9 15 5 8 1012.5 1012.5 0.2
18/07:30am 12.8 10.7 8.3 74 2.2 NW 9 15 5 8 1012.1 1012.1 0.2
18/07:00am 10.7 9.2 8.3 85 1.2 NW 6 7 3 4 1011.9 1011.9 0.2
18/06:30am 9.2 7.5 7.5 89 0.8 N 6 7 3 4 1011.7 1011.7 0.2
18/06:00am 8.8 7.7 7.1 89 0.8 N 2 4 1 2 1011.5 1011.5 0.2
18/05:30am 7.9 6.4 6.8 93 0.5 W 4 9 2 5 1011.3 1011.3 0.2
18/05:00am 6.6 5.2 5.4 92 0.5 SW 2 4 1 2 1011.6 1011.6 0.2
18/04:30am 6.1 5.0 4.9 92 0.5 CALM 0 0 0 0 1011.5 1011.5 0.2
18/04:00am 5.3 3.6 3.8 90 0.6 SW 2 4 1 2 1011.4 1011.4 0.2
18/03:30am 6.2 4.7 4.8 91 0.6 SW 2 4 1 2 1011.6 1011.6 0.2
18/03:00am 6.5 5.4 5.0 90 0.7 CALM 0 0 0 0 1012.0 1012.0 0.2
18/02:30am 7.0 5.6 5.5 90 0.7 SW 2 4 1 2 1012.1 1012.1 0.2
18/02:00am 7.3 6.0 5.9 91 0.6 SW 2 4 1 2 1012.6 1012.6 0.2
18/01:30am 7.5 6.2 6.0 90 0.7 SW 2 4 1 2 1013.1 1013.1 0.2
18/01:00am 7.8 6.5 6.1 89 0.8 SW 2 4 1 2 1013.2 1013.2 0.2
18/12:30am 7.9 7.0 6.2 89 0.8 CALM 0 0 0 0 1013.4 1013.4 0.2
18/12:00am 8.4 7.6 6.7 89 0.8 CALM 0 0 0 0 1013.8 1013.7 0.2
 
Date/Time
EDT
Temp
°C
App
Temp
°C
Dew
Point
°C
Rel
Hum
%
Delta-T
°C
Wind Press
QNH
hPa
Press
MSL
hPa
Rain since
9am
mm
Dir  Spd
km/h
Gust
km/h
Spd
kts
Gust
kts
17/11:30pm 9.0 8.3 7.1 88 0.9 CALM 0 0 0 0 1013.9 1013.8 0.2
17/11:00pm 9.4 8.7 7.0 85 1.1 CALM 0 0 0 0 1014.0 1013.9 0.2
17/10:30pm 9.9 9.3 7.2 83 1.3 CALM 0 2 0 1 1014.1 1014.0 0.2
17/10:00pm 10.2 9.2 7.4 83 1.3 SW 2 4 1 2 1014.1 1014.0 0.2
17/09:30pm 10.3 8.8 7.0 80 1.6 SW 4 4 2 2 1014.1 1014.0 0.2
17/09:00pm 11.1 10.0 7.0 76 2.0 SW 2 4 1 2 1013.9 1013.8 0.2
17/08:30pm 11.4 9.9 6.9 74 2.1 SW 4 6 2 3 1013.6 1013.5 0.2
17/08:00pm 11.7 10.1 6.2 69 2.6 SW 4 6 2 3 1013.3 1013.3 0.2
17/07:30pm 12.7 10.9 7.2 69 2.7 SW 6 9 3 5 1012.9 1012.9 0.2
17/07:00pm 14.1 12.2 7.4 64 3.3 SSW 7 9 4 5 1012.6 1012.6 0.2
17/06:30pm 14.7 12.0 7.5 62 3.6 SSW 11 15 6 8 1012.5 1012.5 0.2
17/06:00pm 15.9 13.2 7.4 57 4.2 WSW 11 19 6 10 1012.3 1012.3 0.2
17/05:30pm 15.5 12.2 6.2 54 4.5 WNW 13 20 7 11 1012.3 1012.3 0.2
17/05:00pm 15.8 13.4 6.8 55 4.4 W 9 15 5 8 1012.5 1012.5 0.2
17/04:30pm 15.7 12.7 6.2 53 4.6 W 11 17 6 9 1012.8 1012.8 0.2
17/04:00pm 15.3 12.0 6.6 56 4.2 W 13 20 7 11 1013.0 1013.0 0.2
17/03:30pm 15.1 12.0 7.2 59 3.9 NW 13 19 7 10 1013.2 1013.2 0.2
17/03:00pm 15.1 11.6 7.4 60 3.8 WNW 15 22 8 12 1013.4 1013.4 0.2
17/02:30pm 14.4 10.6 7.5 63 3.4 NW 17 24 9 13 1013.8 1013.7 0.2
17/02:00pm 14.3 11.1 6.9 61 3.6 NW 13 24 7 13 1013.8 1013.7 0.0
17/01:30pm 14.3 10.8 7.4 63 3.4 NW 15 24 8 13 1013.7 1013.6 0.0
17/01:00pm 14.8 11.5 6.4 57 4.1 NW 13 22 7 12 1013.8 1013.7 0.0
17/12:30pm 14.0 10.5 5.6 57 4.0 NW 13 20 7 11 1014.0 1013.9 0.0
17/12:00pm 13.6 9.4 7.4 66 3.0 NW 19 26 10 14 1014.4 1014.3 0.0
17/11:30am 14.0 10.7 8.0 67 3.0 NW 15 22 8 12 1014.4 1014.3 0.0
17/11:00am 13.7 10.0 8.1 69 2.8 WNW 17 30 9 16 1014.5 1014.4 0.0
17/10:30am 14.1 10.7 7.6 65 3.2 WNW 15 24 8 13 1014.5 1014.4 0.0
17/10:00am 13.6 10.1 8.7 72 2.5 WNW 17 26 9 14 1014.5 1014.4 0.0
17/09:30am 13.2 9.2 8.1 71 2.5 WNW 19 28 10 15 1014.5 1014.4 0.0
17/09:00am 13.0 9.8 8.3 73 2.3 NW 15 22 8 12 1014.4 1014.3 0.0
17/08:30am 11.9 9.1 8.7 81 1.6 NW 13 19 7 10 1014.4 1014.3 0.0
17/08:00am 11.2 10.6 8.8 85 1.2 NNW 2 6 1 3 1014.2 1014.1 0.0
17/07:30am 10.6 10.3 8.7 88 0.9 CALM 0 2 0 1 1014.0 1013.9 0.0
17/07:00am 10.3 9.6 8.4 88 0.9 NW 2 4 1 2 1013.8 1013.7 0.0
17/06:30am 10.2 8.7 8.3 88 0.9 NNW 6 7 3 4 1013.6 1013.5 0.0
17/06:00am 10.4 9.3 8.3 87 1.0 W 4 7 2 4 1013.3 1013.3 0.0
17/05:30am 10.3 8.7 8.1 86 1.1 NW 6 11 3 6 1012.8 1012.8 0.0
17/05:00am 10.2 9.1 8.3 88 0.9 NW 4 7 2 4 1012.7 1012.7 0.0
17/04:30am 10.0 8.8 8.1 88 0.9 NW 4 6 2 3 1012.6 1012.6 0.0
17/04:00am 10.0 8.8 7.9 87 1.0 NW 4 6 2 3 1012.7 1012.7 0.0
17/03:30am 10.3 9.1 7.9 85 1.2 W 4 4 2 2 1012.7 1012.7 0.0
17/03:00am 10.6 8.9 7.7 82 1.4 WNW 6 9 3 5 1012.7 1012.7 0.0
17/02:30am 10.7 8.9 7.2 79 1.7 WNW 6 9 3 5 1012.7 1012.7 0.0
17/02:00am 10.9 8.9 7.2 78 1.8 WNW 7 11 4 6 1012.7 1012.7 0.0
17/01:30am 10.9 8.9 7.2 78 1.8 WNW 7 9 4 5 1012.9 1012.9 0.0
17/01:00am 10.9 8.5 7.0 77 1.9 WNW 9 13 5 7 1013.1 1013.1 0.0
17/12:30am 10.8 8.5 7.3 79 1.7 W 9 15 5 8 1013.2 1013.2 0.0
17/12:00am 10.8 8.4 7.1 78 1.8 W 9 15 5 8 1013.1 1013.1 0.0
 
Date/Time
EDT
Temp
°C
App
Temp
°C
Dew
Point
°C
Rel
Hum
%
Delta-T
°C
Wind Press
QNH
hPa
Press
MSL
hPa
Rain since
9am
mm
Dir  Spd
km/h
Gust
km/h
Spd
kts
Gust
kts
16/11:30pm 10.8 8.6 7.7 81 1.5 W 9 15 5 8 1013.1 1013.1 0.0
16/11:00pm 10.7 8.9 7.8 82 1.4 W 7 11 4 6 1013.3 1013.3 0.0
16/10:30pm 11.0 8.0 7.7 80 1.6 WSW 13 17 7 9 1013.3 1013.3 0.0
16/10:00pm 10.8 8.3 8.0 83 1.4 W 11 22 6 12 1013.2 1013.2 0.0
16/09:30pm 10.4 8.1 7.3 81 1.5 W 9 15 5 8 1013.0 1013.0 0.0
16/09:00pm 10.5 7.9 7.6 82 1.4 WSW 11 15 6 8 1012.7 1012.7 0.0
16/08:30pm 10.7 7.7 7.8 82 1.4 WSW 13 19 7 10 1012.2 1012.2 0.0
16/08:00pm 11.1 6.4 7.6 79 1.7 WSW 22 37 12 20 1011.9 1011.9 0.0
16/07:30pm 11.8 8.0 7.7 76 2.0 WSW 17 28 9 15 1011.5 1011.5 0.0
16/07:00pm 12.1 7.8 8.0 76 2.0 WSW 20 30 11 16 1011.1 1011.1 0.0
16/06:30pm 12.2 8.0 8.1 76 2.0 WSW 20 32 11 17 1010.9 1010.9 0.0
16/06:00pm 12.7 7.7 8.2 74 2.2 SW 24 35 13 19 1010.5 1010.5 0.0
16/05:30pm 12.0 7.4 8.3 78 1.8 SW 22 37 12 20 1010.3 1010.3 0.0
16/05:00pm 12.8 8.1 7.9 72 2.4 WSW 22 39 12 21 1010.1 1010.1 0.0
16/04:30pm 12.7 7.4 8.4 75 2.1 SW 26 44 14 24 1009.8 1009.8 0.0
16/04:00pm 12.6 7.3 8.5 76 2.0 SW 26 37 14 20 1009.8 1009.8 0.0
16/03:45pm 13.2 7.4 8.1 71 2.5 SW 28 46 15 25 1009.8 1009.8 0.0
16/03:30pm 13.2 7.7 9.1 76 2.1 WSW 28 39 15 21 1009.9 1009.9 0.0
16/03:00pm 12.3 7.6 9.1 81 1.6 SW 24 43 13 23 1009.9 1009.9 0.0
16/02:43pm 11.4 5.9 9.0 85 1.2 SW 28 48 15 26 1009.9 1009.9 0.0
16/02:30pm 13.5 7.7 7.9 69 2.8 SW 28 43 15 23 1009.6 1009.6 0.0
16/02:00pm 12.9 7.2 8.2 73 2.3 SW 28 43 15 23 1009.8 1009.8 0.0
16/01:30pm 12.4 7.6 8.7 78 1.8 SW 24 35 13 19 1009.8 1009.8 0.0
16/01:00pm 13.4 7.6 7.8 69 2.8 SW 28 41 15 22 1009.5 1009.5 0.0
16/12:54pm 12.8 7.0 7.9 72 2.4 SW 28 46 15 25 1009.6 1009.6 0.0
16/12:30pm 13.7 7.7 7.0 64 3.3 SW 28 44 15 24 1009.5 1009.5 0.0
16/12:01pm 13.0 6.9 6.8 66 3.0 SW 28 48 15 26 1009.5 1009.5 0.0
16/12:00pm 13.0 7.4 7.0 67 2.9 SW 26 48 14 26 1009.5 1009.5 0.0
16/11:44am 12.9 6.9 7.1 68 2.8 SW 28 46 15 25 1009.5 1009.5 0.0
16/11:30am 12.7 6.8 7.4 70 2.6 WSW 28 43 15 23 1009.4 1009.4 0.0
16/11:00am 12.7 7.2 7.4 70 2.6 SW 26 46 14 25 1009.1 1009.1 0.0
16/10:30am 13.1 7.2 7.3 68 2.8 SW 28 41 15 22 1008.7 1008.7 0.0
16/10:16am 12.8 6.0 7.0 68 2.8 SW 32 52 17 28 1008.6 1008.6 0.0
16/10:00am 13.0 6.4 7.7 70 2.6 SW 32 50 17 27 1008.5 1008.5 0.0
16/09:37am 13.0 7.4 8.7 75 2.2 SW 28 46 15 25 1008.0 1008.0 0.0
16/09:30am 12.9 7.3 8.6 75 2.1 SW 28 46 15 25 1007.9 1007.9 0.0
16/09:08am 12.2 6.3 8.9 80 1.6 SW 30 52 16 28 1007.5 1007.5 0.0
16/09:00am 11.8 6.3 9.0 83 1.4 SW 28 44 15 24 1007.5 1007.5 22.0
16/08:30am 12.6 6.3 8.9 78 1.9 SW 32 50 17 27 1006.9 1006.9 21.8
16/08:03am 11.9 5.6 8.9 82 1.5 SSW 32 56 17 30 1006.4 1006.4 21.8
16/08:00am 11.8 5.3 8.8 82 1.5 SW 33 48 18 26 1006.3 1006.3 21.8
16/07:32am 12.5 6.0 8.0 74 2.2 SW 32 56 17 30 1005.6 1005.6 21.8
16/07:30am 12.5 6.0 8.2 75 2.1 SW 32 46 17 25 1005.7 1005.7 21.8
16/07:00am 12.4 4.5 7.7 73 2.3 SW 39 57 21 31 1004.9 1004.9 21.8
16/06:30am 11.8 5.2 8.5 80 1.6 SW 33 54 18 29 1004.5 1004.5 21.8
16/06:02am 12.1 5.6 8.9 81 1.6 SW 33 54 18 29 1004.0 1004.0 21.8
16/06:00am 12.1 5.6 8.9 81 1.6 SW 33 48 18 26 1004.0 1004.0 21.8
16/05:35am 12.0 5.8 9.4 84 1.3 SW 32 52 17 28 1003.7 1003.7 21.8
16/05:30am 12.3 5.9 9.3 82 1.5 SW 33 52 18 28 1003.6 1003.6 21.8
16/05:00am 12.5 5.1 8.4 76 2.0 SW 37 59 20 32 1003.2 1003.2 21.8
16/04:30am 12.2 5.7 8.9 80 1.6 SW 33 54 18 29 1002.7 1002.7 21.8
16/04:00am 12.2 5.2 9.9 86 1.2 SW 37 61 20 33 1002.3 1002.3 21.8
16/03:34am 12.5 6.5 10.7 89 0.9 SW 33 52 18 28 1002.1 1002.1 21.8
16/03:30am 12.3 6.3 10.7 90 0.8 SW 33 48 18 26 1002.0 1002.0 21.8
16/03:00am 12.7 6.3 10.8 88 1.0 SW 35 61 19 33 1001.4 1001.4 21.4
16/02:48am 12.8 6.8 10.9 88 1.0 SW 33 54 18 29 1001.1 1001.1 21.4
16/02:30am 12.8 6.5 11.2 90 0.8 SW 35 50 19 27 1001.0 1001.0 21.4
16/02:00am 12.9 7.6 11.3 90 0.8 SW 30 54 16 29 1000.8 1000.8 21.4
16/01:30am 12.8 6.6 11.4 91 0.7 SW 35 56 19 30 1000.5 1000.5 21.2
16/01:04am 12.8 7.2 11.4 91 0.7 SW 32 50 17 27 1000.3 1000.3 20.8
16/01:00am 13.0 7.2 11.4 90 0.9 SW 33 52 18 28 1000.3 1000.3 20.8
16/12:38am 13.1 7.2 11.3 89 1.0 SW 33 52 18 28 1000.0 1000.0 20.8
16/12:30am 13.0 6.4 11.2 89 0.9 SW 37 56 20 30 999.9 999.9 20.8
16/12:05am 12.8 6.6 11.5 92 0.7 SW 35 59 19 32 999.3 999.3 20.8
16/12:00am 12.8 6.6 11.5 92 0.7 SW 35 50 19 27 999.3 999.3 20.6
 
Date/Time
EDT
Temp
°C
App
Temp
°C
Dew
Point
°C
Rel
Hum
%
Delta-T
°C
Wind Press
QNH
hPa
Press
MSL
hPa
Rain since
9am
mm
Dir  Spd
km/h
Gust
km/h
Spd
kts
Gust
kts
15/11:30pm 12.8 7.2 11.5 92 0.7 SW 32 52 17 28 999.3 999.3 19.8
15/11:00pm 12.9 8.1 11.8 93 0.6 SW 28 50 15 27 999.3 999.3 18.6
15/10:30pm 12.8 7.6 11.5 92 0.7 SW 30 52 16 28 999.4 999.4 17.4
15/10:21pm 12.7 7.8 11.4 92 0.7 WSW 28 52 15 28 999.3 999.3 16.8
15/10:00pm 12.7 7.8 11.3 91 0.7 WSW 28 43 15 23 999.2 999.2 15.4
15/09:30pm 12.6 7.3 11.2 91 0.7 WSW 30 43 16 23 999.4 999.4 14.8
15/09:00pm 11.8 7.8 10.5 92 0.7 W 22 35 12 19 999.1 999.1 13.8
15/08:30pm 11.2 7.6 9.8 91 0.7 WNW 19 28 10 15 998.9 998.9 12.4
15/08:00pm 11.1 6.9 9.7 91 0.7 WNW 22 37 12 20 998.9 998.9 11.2
15/07:30pm 11.0 6.7 9.4 90 0.8 WNW 22 35 12 19 999.1 999.1 9.6
15/07:00pm 11.1 7.2 9.4 89 0.9 WNW 20 33 11 18 999.1 999.1 8.2
15/06:30pm 11.3 8.0 9.4 88 1.0 WNW 17 32 9 17 999.1 999.1 7.0
15/06:00pm 11.2 8.2 9.3 88 1.0 WNW 15 22 8 12 999.5 999.5 6.2
15/05:30pm 11.2 7.8 9.1 87 1.0 WNW 17 28 9 15 999.4 999.4 5.6
15/05:00pm 11.2 7.4 9.1 87 1.1 W 19 30 10 16 999.6 999.6 5.2
15/04:30pm 11.4 7.0 9.1 86 1.1 W 22 37 12 20 999.5 999.5 4.6
15/04:00pm 11.6 8.4 9.9 89 0.9 WNW 17 30 9 16 999.6 999.6 4.2
15/03:30pm 11.3 7.4 9.4 88 1.0 NW 20 28 11 15 999.8 999.8 3.2
15/03:00pm 11.7 7.8 9.6 87 1.1 WNW 20 32 11 17 1000.2 1000.2 2.2
15/02:30pm 11.6 7.6 9.2 85 1.2 WNW 20 35 11 19 1000.5 1000.5 1.4
15/02:00pm 12.4 8.4 9.2 81 1.6 W 20 33 11 18 1000.8 1000.8 0.0
15/01:34pm 12.1 6.4 8.4 78 1.8 WNW 28 48 15 26 1001.0 1001.0 0.0
15/01:30pm 12.7 7.3 8.2 74 2.2 WNW 26 48 14 26 1000.9 1000.9 0.0
15/01:00pm 14.9 10.7 8.4 65 3.3 WNW 20 32 11 17 1000.9 1000.9 0.0
15/12:30pm 14.7 10.1 8.0 64 3.3 WNW 22 35 12 19 1001.3 1001.3 0.0
15/12:00pm 14.7 10.1 8.0 64 3.4 WNW 22 32 12 17 1001.7 1001.7 0.0

Latest Capital City Observations: Canberra | Sydney | Melbourne | Brisbane | Adelaide | Perth | Hobart | Darwin

Other formats

Comma delimited format used in spreadsheet applications
http://www.bom.gov.au/fwo/IDV60901/IDV60901.94898.axf

JavaScript Object Notation format (JSON) in row-major order
http://www.bom.gov.au/fwo/IDV60901/IDV60901.94898.json

Data quality

Most of these data are generated automatically and are frequently updated. Quality checks on data are not normally performed. It is possible for incorrect values to appear. Refer to information at About Latest Weather Observations and please check the disclaimer before using these data.